Time;durP1;ratioP1;P1;durP2;ratioP2;P2;SDS_P1;SDS_P2;PMS_P1;PMS_P2;Temp;Humidity;BMP_temperature;BMP_pressure;BME280_temperature;BME280_humidity;BME280_pressure;Samples;Min_cycle;Max_cycle;Signal;HPM_P1;HPM_P2
2021/01/25 00:00:44;;;;;;;4.88;2.10;;;16.20;47.00;;;;;;6188572;23;20122;-82
2021/01/25 00:03:12;;;;;;;3.75;2.30;;;16.20;47.00;;;;;;6188930;23;20146;-82
2021/01/25 00:06:00;;;;;;;4.57;2.10;;;16.10;47.10;;;;;;6187992;23;20174;-82
2021/01/25 00:08:38;;;;;;;4.38;1.80;;;16.20;47.10;;;;;;6190131;23;20149;-82
2021/01/25 00:11:05;;;;;;;4.53;2.00;;;16.20;47.00;;;;;;6189980;23;20126;-82
2021/01/25 00:13:32;;;;;;;5.18;2.00;;;16.20;47.00;;;;;;6189109;23;20169;-82
2021/01/25 00:16:00;;;;;;;3.22;2.20;;;16.20;46.90;;;;;;6188414;23;20118;-82
2021/01/25 00:18:35;;;;;;;3.08;2.03;;;16.20;46.90;;;;;;6188519;23;20142;-82
2021/01/25 00:21:14;;;;;;;3.88;1.83;;;16.10;46.90;;;;;;6213589;23;20130;-82
2021/01/25 00:23:41;;;;;;;3.83;2.22;;;16.30;46.70;;;;;;6189628;23;20160;-82
2021/01/25 00:26:08;;;;;;;3.25;2.40;;;16.20;46.60;;;;;;6188506;23;20138;-82
2021/01/25 00:28:39;;;;;;;3.17;2.10;;;16.30;46.70;;;;;;6188408;23;20162;-82
2021/01/25 00:31:07;;;;;;;4.13;2.28;;;16.30;46.70;;;;;;6213359;23;20131;-82
2021/01/25 00:33:33;;;;;;;4.68;1.90;;;16.40;47.20;;;;;;6213685;23;20228;-82
2021/01/25 00:36:00;;;;;;;6.90;2.15;;;16.40;46.40;;;;;;6163726;23;20149;-82
2021/01/25 00:38:30;;;;;;;4.00;1.95;;;16.40;46.40;;;;;;6213123;23;20131;-82
2021/01/25 00:41:00;;;;;;;4.90;2.13;;;16.30;46.60;;;;;;6189265;23;20149;-81
2021/01/25 00:43:49;;;;;;;3.80;2.25;;;16.30;46.60;;;;;;6188163;23;20134;-82
2021/01/25 00:46:29;;;;;;;2.97;1.90;;;16.30;46.40;;;;;;6213037;23;20157;-82
2021/01/25 00:48:56;;;;;;;2.88;1.88;;;16.30;46.60;;;;;;6189129;23;20150;-82
2021/01/25 00:51:26;;;;;;;3.20;2.10;;;16.20;46.60;;;;;;6187435;23;20216;-81
2021/01/25 00:54:02;;;;;;;4.10;2.10;;;16.30;46.70;;;;;;6187977;23;20250;-82
2021/01/25 00:56:29;;;;;;;4.25;2.10;;;16.30;46.60;;;;;;6187153;23;20221;-82
2021/01/25 00:58:59;;;;;;;2.50;1.73;;;16.40;46.40;;;;;;6187610;23;20142;-82
2021/01/25 01:01:32;;;;;;;4.15;2.22;;;16.40;46.40;;;;;;6185205;23;20181;-82
2021/01/25 01:04:07;;;;;;;5.13;1.90;;;16.40;46.50;;;;;;6187801;23;20150;-82
2021/01/25 01:06:36;;;;;;;2.95;1.85;;;16.30;46.50;;;;;;6188061;23;20122;-82
2021/01/25 01:09:04;;;;;;;5.03;2.05;;;16.30;46.70;;;;;;6163475;23;20149;-82
2021/01/25 01:11:37;;;;;;;3.67;1.92;;;16.30;46.50;;;;;;6187234;23;20208;-82
2021/01/25 01:14:10;;;;;;;4.15;1.90;;;16.40;46.40;;;;;;6187244;23;20173;-82
2021/01/25 01:16:38;;;;;;;2.40;1.80;;;16.40;46.40;;;;;;6189045;23;20200;-82
2021/01/25 01:19:05;;;;;;;2.85;1.83;;;16.30;46.40;;;;;;6186897;23;20157;-82
2021/01/25 01:21:39;;;;;;;4.10;1.80;;;16.30;46.40;;;;;;6188082;23;20146;-82
2021/01/25 01:24:13;;;;;;;3.03;1.73;;;16.40;46.30;;;;;;6187774;23;20137;-82
2021/01/25 01:26:45;;;;;;;3.40;1.90;;;16.30;46.50;;;;;;6187233;23;20154;-82
2021/01/25 01:29:14;;;;;;;2.67;1.70;;;16.30;46.50;;;;;;6187963;23;20153;-82
2021/01/25 01:31:41;;;;;;;4.32;1.90;;;16.30;46.60;;;;;;6162810;23;20170;-82
2021/01/25 01:34:10;;;;;;;3.03;2.00;;;16.40;46.40;;;;;;6157569;23;20202;-82
2021/01/25 01:36:36;;;;;;;2.83;1.73;;;16.40;46.40;;;;;;6181951;23;20154;-82
2021/01/25 01:39:04;;;;;;;2.90;1.63;;;16.40;46.40;;;;;;6158031;23;20166;-82
2021/01/25 01:41:43;;;;;;;2.70;1.80;;;16.40;46.30;;;;;;6182731;23;20218;-82
2021/01/25 01:44:15;;;;;;;3.90;1.55;;;16.40;46.30;;;;;;6182675;23;20174;-82
2021/01/25 01:46:43;;;;;;;3.17;1.60;;;16.50;46.00;;;;;;6182618;23;20147;-82
2021/01/25 01:49:11;;;;;;;3.75;2.10;;;16.50;46.00;;;;;;6182513;23;20131;-82
2021/01/25 01:51:45;;;;;;;3.63;1.98;;;16.40;46.10;;;;;;6183093;23;20146;-82
2021/01/25 01:54:13;;;;;;;1.98;1.60;;;16.40;46.10;;;;;;6205732;23;20206;-82
2021/01/25 01:56:42;;;;;;;3.40;2.00;;;16.50;46.10;;;;;;6182658;23;20146;-82
2021/01/25 01:59:10;;;;;;;3.03;2.00;;;16.40;46.10;;;;;;6182819;23;20151;-82
2021/01/25 02:01:36;;;;;;;3.42;1.88;;;16.40;46.20;;;;;;6158581;23;20150;-82
2021/01/25 02:04:03;;;;;;;3.10;1.77;;;16.30;46.30;;;;;;6157645;23;20149;-82
2021/01/25 02:06:33;;;;;;;3.13;1.55;;;16.40;46.30;;;;;;6182622;23;20133;-82
2021/01/25 02:09:05;;;;;;;3.13;1.70;;;16.40;46.00;;;;;;6156938;23;20139;-82
2021/01/25 02:11:33;;;;;;;2.53;1.77;;;16.40;46.20;;;;;;6158017;23;20151;-82
2021/01/25 02:14:08;;;;;;;2.65;1.80;;;16.40;46.00;;;;;;6158059;23;20186;-82
2021/01/25 02:16:38;;;;;;;2.55;1.80;;;16.40;46.10;;;;;;6206722;23;20127;-82
2021/01/25 02:19:11;;;;;;;3.08;1.75;;;16.40;46.10;;;;;;6157884;23;20138;-82
2021/01/25 02:21:39;;;;;;;2.33;1.75;;;16.40;46.20;;;;;;6158396;23;20147;-82
2021/01/25 02:24:31;;;;;;;2.40;1.50;;;16.40;46.30;;;;;;6181347;23;20154;-82
2021/01/25 02:27:32;;;;;;;2.53;1.65;;;16.30;46.30;;;;;;6159609;23;20135;-82
2021/01/25 02:30:04;;;;;;;2.97;1.75;;;16.40;46.30;;;;;;6182652;23;20153;-82
2021/01/25 02:32:32;;;;;;;2.38;1.60;;;16.40;46.30;;;;;;6183012;23;20561;-82
2021/01/25 02:35:01;;;;;;;3.00;1.85;;;16.40;46.30;;;;;;6157551;23;20194;-82
2021/01/25 02:37:44;;;;;;;3.90;1.52;;;16.40;46.10;;;;;;6157614;23;20146;-82
2021/01/25 02:40:22;;;;;;;2.65;1.60;;;16.50;46.10;;;;;;6160723;23;20202;-82
2021/01/25 02:42:56;;;;;;;2.25;1.70;;;16.40;46.00;;;;;;6182445;23;20471;-82
2021/01/25 02:45:25;;;;;;;2.63;1.50;;;16.40;46.00;;;;;;6182231;23;20178;-82
2021/01/25 02:47:55;;;;;;;2.90;1.60;;;16.50;45.90;;;;;;6183289;23;20155;-82
2021/01/25 02:50:21;;;;;;;2.22;1.55;;;16.40;46.00;;;;;;6157900;23;20147;-84
2021/01/25 02:52:48;;;;;;;2.58;1.33;;;16.50;46.10;;;;;;6182579;23;20170;-82
2021/01/25 02:55:21;;;;;;;2.22;1.50;;;16.40;46.00;;;;;;6180686;23;20158;-82
2021/01/25 02:57:55;;;;;;;2.72;1.80;;;16.40;46.20;;;;;;6156720;23;20162;-82
2021/01/25 03:00:35;;;;;;;2.97;1.60;;;16.40;46.10;;;;;;6131738;23;20150;-82
2021/01/25 03:03:11;;;;;;;2.90;1.65;;;16.40;46.10;;;;;;6156757;23;20185;-82
2021/01/25 03:05:43;;;;;;;1.88;1.45;;;16.40;46.10;;;;;;6131937;23;20146;-82
2021/01/25 03:08:11;;;;;;;1.73;1.35;;;16.40;46.10;;;;;;6132137;23;20167;-82
2021/01/25 03:10:38;;;;;;;3.30;1.67;;;16.40;46.00;;;;;;6132375;23;20285;-82
2021/01/25 03:13:05;;;;;;;2.10;1.40;;;16.40;46.00;;;;;;6131775;23;20183;-82
2021/01/25 03:15:34;;;;;;;2.25;1.50;;;16.40;46.10;;;;;;6132060;23;20154;-82
2021/01/25 03:18:07;;;;;;;2.13;1.52;;;16.40;46.00;;;;;;6130993;23;20151;-82
2021/01/25 03:20:41;;;;;;;2.50;1.27;;;16.40;46.10;;;;;;6132496;23;20158;-82
2021/01/25 03:23:15;;;;;;;2.10;1.60;;;16.40;46.00;;;;;;6132588;23;20639;-82
2021/01/25 03:25:54;;;;;;;2.28;1.67;;;16.40;46.00;;;;;;6157563;23;20170;-82
2021/01/25 03:28:20;;;;;;;2.40;1.60;;;16.40;46.00;;;;;;6157735;23;20154;-82
2021/01/25 03:30:48;;;;;;;2.53;1.42;;;16.40;46.00;;;;;;6158356;23;20143;-82
2021/01/25 03:33:16;;;;;;;1.67;1.30;;;16.50;45.80;;;;;;6156837;23;20186;-82
2021/01/25 03:35:43;;;;;;;1.80;1.30;;;16.50;45.80;;;;;;6156748;23;20169;-82
2021/01/25 03:38:09;;;;;;;1.83;1.50;;;16.50;45.90;;;;;;6156438;23;20163;-82
2021/01/25 03:40:35;;;;;;;1.83;1.48;;;16.40;45.90;;;;;;6156797;23;20139;-82
2021/01/25 03:43:05;;;;;;;2.03;1.20;;;16.40;45.90;;;;;;6157075;23;20185;-82
2021/01/25 03:45:33;;;;;;;3.05;1.60;;;16.40;46.00;;;;;;6181866;23;20127;-82
2021/01/25 03:48:07;;;;;;;2.22;1.50;;;16.40;45.90;;;;;;6157207;23;20193;-82
2021/01/25 03:50:38;;;;;;;2.22;1.55;;;16.40;45.90;;;;;;6182169;23;20139;-82
2021/01/25 03:53:06;;;;;;;1.45;1.35;;;16.30;46.10;;;;;;6180389;23;20234;-82
2021/01/25 03:55:47;;;;;;;1.80;1.40;;;16.40;46.10;;;;;;6206213;23;20143;-82
2021/01/25 03:58:24;;;;;;;2.08;1.45;;;16.40;46.00;;;;;;6181437;23;20143;-82
2021/01/25 04:00:54;;;;;;;2.13;1.52;;;16.40;46.10;;;;;;6206565;23;20147;-81
2021/01/25 04:03:20;;;;;;;1.60;1.23;;;16.40;45.80;;;;;;6181724;23;20143;-81
2021/01/25 04:05:58;;;;;;;2.15;1.23;;;16.50;45.80;;;;;;6156726;23;20135;-82
2021/01/25 04:08:28;;;;;;;1.52;1.27;;;16.50;45.60;;;;;;6182059;23;20151;-82
2021/01/25 04:10:57;;;;;;;1.58;1.42;;;16.50;45.70;;;;;;6181239;23;20134;-82
2021/01/25 04:13:28;;;;;;;2.95;1.35;;;16.50;45.70;;;;;;6206115;23;20167;-82
2021/01/25 04:16:01;;;;;;;2.35;1.30;;;16.50;45.70;;;;;;6157748;23;20149;-82
2021/01/25 04:18:28;;;;;;;2.13;1.45;;;16.50;45.80;;;;;;6181617;23;20138;-82
2021/01/25 04:20:54;;;;;;;2.53;1.50;;;16.40;45.80;;;;;;6157433;23;20135;-82
2021/01/25 04:23:28;;;;;;;2.33;1.40;;;16.40;45.90;;;;;;6156361;23;20155;-82
2021/01/25 04:26:02;;;;;;;2.10;1.60;;;16.40;45.90;;;;;;6182229;23;20127;-82
2021/01/25 04:28:29;;;;;;;1.83;1.23;;;16.40;45.90;;;;;;6156354;23;20153;-82
2021/01/25 04:30:58;;;;;;;2.05;1.27;;;16.40;45.90;;;;;;6157244;23;20142;-82
2021/01/25 04:33:33;;;;;;;2.95;1.30;;;16.50;45.70;;;;;;6155849;23;20205;-82
2021/01/25 04:35:59;;;;;;;2.30;1.42;;;16.50;45.70;;;;;;6152479;23;20146;-82
2021/01/25 04:38:26;;;;;;;1.95;1.27;;;16.50;45.80;;;;;;6126077;23;20144;-82
2021/01/25 04:40:56;;;;;;;1.85;1.35;;;16.40;45.80;;;;;;6128096;23;20150;-82
2021/01/25 04:43:28;;;;;;;2.17;1.40;;;16.40;45.70;;;;;;6127889;23;20171;-82
2021/01/25 04:46:06;;;;;;;2.13;1.48;;;16.40;45.70;;;;;;6127668;23;20231;-81
2021/01/25 04:48:59;;;;;;;1.85;1.27;;;16.40;45.70;;;;;;6127416;23;20166;-82
2021/01/25 04:51:27;;;;;;;1.63;1.48;;;16.50;45.70;;;;;;6176954;23;20143;-82
2021/01/25 04:53:54;;;;;;;1.85;1.38;;;16.50;45.60;;;;;;6127907;23;20170;-81
2021/01/25 04:56:22;;;;;;;1.92;1.48;;;16.50;45.50;;;;;;6151004;23;20164;-81
2021/01/25 04:58:51;;;;;;;2.05;1.60;;;16.40;45.50;;;;;;6126669;23;20623;-81
2021/01/25 05:01:26;;;;;;;2.35;1.30;;;16.40;45.50;;;;;;6174463;23;20135;-82
2021/01/25 05:03:54;;;;;;;1.80;1.30;;;16.50;45.60;;;;;;6150345;23;20146;-81
2021/01/25 05:06:21;;;;;;;1.55;1.30;;;16.40;45.50;;;;;;6149452;23;20144;-82
2021/01/25 05:08:49;;;;;;;2.22;1.40;;;16.40;45.50;;;;;;6175452;23;20132;-82
2021/01/25 05:11:28;;;;;;;2.33;1.58;;;16.40;45.50;;;;;;6126847;23;20144;-82
2021/01/25 05:14:08;;;;;;;2.58;1.40;;;16.50;45.50;;;;;;6149842;23;20172;-81
2021/01/25 05:16:36;;;;;;;1.30;1.10;;;16.50;45.40;;;;;;6149240;23;20144;-81
2021/01/25 05:19:04;;;;;;;2.05;1.15;;;16.40;45.40;;;;;;6125149;23;20135;-82
2021/01/25 05:21:44;;;;;;;1.52;1.10;;;16.40;45.40;;;;;;6124767;23;20167;-81
2021/01/25 05:24:11;;;;;;;1.35;1.05;;;16.50;45.30;;;;;;6173583;23;20147;-81
2021/01/25 05:27:01;;;;;;;1.40;1.02;;;16.50;45.30;;;;;;6124406;23;20175;-82
2021/01/25 05:29:30;;;;;;;1.80;1.15;;;16.50;45.20;;;;;;6149902;23;20592;-82
2021/01/25 05:31:58;;;;;;;2.47;1.40;;;16.50;45.00;;;;;;6148744;23;20120;-81
2021/01/25 05:34:24;;;;;;;2.55;1.27;;;16.50;45.00;;;;;;6183239;23;20229;-82
2021/01/25 05:36:55;;;;;;;2.42;1.13;;;16.50;45.00;;;;;;6152820;23;20142;-82
2021/01/25 05:39:30;;;;;;;1.45;1.30;;;16.50;45.00;;;;;;6151863;23;20162;-82
2021/01/25 05:42:00;;;;;;;1.63;1.02;;;16.50;45.80;;;;;;6152695;23;20153;-81
2021/01/25 05:44:26;;;;;;;1.67;1.20;;;16.50;44.90;;;;;;6201538;23;20131;-81
2021/01/25 05:47:11;;;;;;;1.70;1.20;;;16.60;44.80;;;;;;6151079;23;20155;-81
2021/01/25 05:49:49;;;;;;;1.38;1.23;;;16.50;44.90;;;;;;6175473;23;20142;-81
2021/01/25 05:52:18;;;;;;;2.22;1.40;;;16.50;45.00;;;;;;6151576;23;20149;-82
2021/01/25 05:54:47;;;;;;;1.40;1.10;;;16.40;45.00;;;;;;6152422;23;20181;-81
2021/01/25 05:57:22;;;;;;;1.25;0.98;;;16.40;44.90;;;;;;6151467;23;20161;-81
2021/01/25 05:59:53;;;;;;;1.50;1.40;;;16.40;45.00;;;;;;6177118;23;20521;-81
2021/01/25 06:02:26;;;;;;;1.83;1.10;;;16.40;45.10;;;;;;6177248;23;20154;-82
2021/01/25 06:04:53;;;;;;;2.00;1.30;;;16.40;45.00;;;;;;6177862;23;20142;-81
2021/01/25 06:07:20;;;;;;;1.50;1.25;;;16.40;45.10;;;;;;6202906;23;20613;-81
2021/01/25 06:09:53;;;;;;;1.52;1.15;;;16.40;44.90;;;;;;6180217;23;20143;-81
2021/01/25 06:12:29;;;;;;;1.52;1.00;;;16.40;45.00;;;;;;6178451;23;20149;-81
2021/01/25 06:15:03;;;;;;;1.63;1.10;;;16.40;44.80;;;;;;6153559;23;20173;-81
2021/01/25 06:17:34;;;;;;;1.45;1.15;;;16.40;45.00;;;;;;6152864;23;20151;-82
2021/01/25 06:20:08;;;;;;;1.45;1.17;;;16.40;45.10;;;;;;6152364;23;20202;-82
2021/01/25 06:22:34;;;;;;;1.13;0.95;;;16.40;45.00;;;;;;6152711;23;20146;-81
2021/01/25 06:25:07;;;;;;;1.40;1.20;;;16.40;45.00;;;;;;6153068;23;20234;-81
2021/01/25 06:27:42;;;;;;;1.52;1.30;;;16.40;44.90;;;;;;6201985;23;20127;-82
2021/01/25 06:30:20;;;;;;;1.35;1.00;;;16.40;44.80;;;;;;6201631;23;20127;-81
2021/01/25 06:32:51;;;;;;;1.67;1.00;;;16.40;44.80;;;;;;6200452;23;20175;-82
2021/01/25 06:35:22;;;;;;;1.27;1.08;;;16.40;44.70;;;;;;6151495;23;20253;-81
2021/01/25 06:38:01;;;;;;;1.20;1.10;;;16.40;44.70;;;;;;6126426;23;20162;-81
2021/01/25 06:40:47;;;;;;;1.67;1.10;;;16.40;44.80;;;;;;6126412;23;20149;-82
2021/01/25 06:43:16;;;;;;;2.08;1.15;;;16.40;44.90;;;;;;6151551;23;20161;-81
2021/01/25 06:45:47;;;;;;;0.80;0.80;;;16.40;44.60;;;;;;6175831;23;20505;-82
2021/01/25 06:48:16;;;;;;;1.35;1.15;;;16.40;44.60;;;;;;6151064;23;20143;-81
2021/01/25 06:50:47;;;;;;;1.83;1.13;;;16.40;44.60;;;;;;6150059;23;20190;-82
2021/01/25 06:53:15;;;;;;;1.75;1.25;;;16.50;44.50;;;;;;6150322;23;20182;-81
2021/01/25 06:55:44;;;;;;;1.20;1.10;;;16.50;44.40;;;;;;6175829;23;20571;-82
2021/01/25 06:58:17;;;;;;;1.55;1.00;;;16.50;44.50;;;;;;6151041;23;20154;-82
2021/01/25 07:00:43;;;;;;;1.95;1.00;;;16.50;44.30;;;;;;6126710;23;20227;-81
2021/01/25 07:03:19;;;;;;;1.30;1.15;;;16.50;44.30;;;;;;6126529;23;20170;-82
2021/01/25 07:05:49;;;;;;;1.45;1.05;;;16.40;44.50;;;;;;6126868;23;20616;-82
2021/01/25 07:08:26;;;;;;;1.23;1.00;;;16.40;44.50;;;;;;6179804;23;20135;-81
2021/01/25 07:11:04;;;;;;;1.35;1.20;;;16.40;44.50;;;;;;6171109;23;20151;-82
2021/01/25 07:13:36;;;;;;;1.58;1.10;;;16.50;44.40;;;;;;6150206;23;20181;-82
2021/01/25 07:16:02;;;;;;;2.25;1.10;;;16.50;44.30;;;;;;6150837;23;20215;-82
2021/01/25 07:18:28;;;;;;;1.58;0.95;;;16.50;44.30;;;;;;6150400;23;20147;-82
2021/01/25 07:21:03;;;;;;;1.42;1.10;;;16.40;44.30;;;;;;6174421;23;20131;-82
2021/01/25 07:23:30;;;;;;;1.95;1.50;;;16.40;44.40;;;;;;6202420;23;20142;-82
2021/01/25 07:26:01;;;;;;;1.42;1.20;;;16.40;44.30;;;;;;6179601;23;20207;-82
2021/01/25 07:28:29;;;;;;;1.38;1.05;;;16.40;44.40;;;;;;6177880;23;20178;-82
2021/01/25 07:30:55;;;;;;;2.03;1.30;;;16.50;44.90;;;;;;6153964;23;20146;-82
2021/01/25 07:33:24;;;;;;;1.20;1.00;;;16.60;44.40;;;;;;6155474;23;20546;-81
2021/01/25 07:35:58;;;;;;;1.77;1.10;;;16.60;44.40;;;;;;6202467;23;20675;-82
2021/01/25 07:38:27;;;;;;;1.48;1.10;;;16.50;44.60;;;;;;6153534;23;20146;-82
2021/01/25 07:41:00;;;;;;;2.15;1.13;;;16.50;44.50;;;;;;6156575;23;20221;-82
2021/01/25 07:43:31;;;;;;;2.33;1.15;;;16.60;44.60;;;;;;6157094;23;20155;-82
2021/01/25 07:46:23;;;;;;;1.20;0.95;;;16.60;44.50;;;;;;6199696;23;20127;-80
2021/01/25 07:48:54;;;;;;;1.40;1.20;;;16.50;44.30;;;;;;6172641;23;20151;-82
2021/01/25 07:51:25;;;;;;;1.67;1.15;;;16.60;44.30;;;;;;6174558;23;20189;-81
2021/01/25 07:53:52;;;;;;;1.42;1.10;;;16.60;44.30;;;;;;6150167;23;20254;-82
2021/01/25 07:56:29;;;;;;;2.42;1.10;;;16.60;44.30;;;;;;6200255;23;20139;-82
2021/01/25 07:59:08;;;;;;;2.25;1.10;;;16.60;44.20;;;;;;6151004;23;20146;-78
2021/01/25 08:01:50;;;;;;;1.27;1.00;;;16.70;44.10;;;;;;6189563;23;20178;-78
2021/01/25 08:04:17;;;;;;;1.77;1.17;;;16.70;44.00;;;;;;6165935;23;20147;-76
2021/01/25 08:06:43;;;;;;;2.65;1.10;;;16.60;44.00;;;;;;6189277;23;20568;-78
2021/01/25 08:09:11;;;;;;;1.95;1.33;;;16.70;44.10;;;;;;6189700;23;20138;-76
2021/01/25 08:11:41;;;;;;;1.00;0.90;;;16.60;44.10;;;;;;6197282;23;20131;-79
2021/01/25 08:14:31;;;;;;;1.48;0.95;;;16.70;44.10;;;;;;6173076;23;20278;-78
2021/01/25 08:17:06;;;;;;;1.48;1.10;;;16.80;44.00;;;;;;6198673;23;20131;-79
2021/01/25 08:19:51;;;;;;;1.50;1.15;;;16.80;43.90;;;;;;6197735;23;20194;-80
2021/01/25 08:22:19;;;;;;;1.80;1.20;;;16.70;44.00;;;;;;6175949;23;20186;-78
2021/01/25 08:25:19;;;;;;;1.33;0.90;;;16.60;44.30;;;;;;6150108;23;20166;-79
2021/01/25 08:28:12;;;;;;;0.93;0.85;;;16.70;44.10;;;;;;6195469;23;20599;-77
2021/01/25 08:30:39;;;;;;;3.00;1.00;;;16.70;44.10;;;;;;6193992;23;20139;-78
2021/01/25 08:33:15;;;;;;;1.65;1.00;;;16.80;44.80;;;;;;6149065;23;20176;-79
2021/01/25 08:35:50;;;;;;;1.10;1.00;;;16.70;44.10;;;;;;6150025;23;20215;-79
2021/01/25 08:38:32;;;;;;;1.88;1.10;;;16.80;43.70;;;;;;6198379;23;20146;-79
2021/01/25 08:41:00;;;;;;;2.20;0.90;;;17.00;43.30;;;;;;6198544;23;20135;-80
2021/01/25 08:43:32;;;;;;;1.98;1.23;;;17.00;43.20;;;;;;6172608;23;20182;-78
2021/01/25 08:46:39;;;;;;;5.43;1.00;;;17.10;43.20;;;;;;6172932;23;20127;-78
2021/01/25 08:49:10;;;;;;;11.88;1.30;;;17.10;43.20;;;;;;6196432;23;20150;-77
2021/01/25 08:51:55;;;;;;;12.48;1.80;;;17.10;43.30;;;;;;6147664;23;20207;-78
2021/01/25 08:54:30;;;;;;;20.38;1.60;;;17.00;43.60;;;;;;6199105;23;20201;-77
2021/01/25 08:56:55;;;;;;;8.27;2.00;;;17.00;43.80;;;;;;6197411;23;20225;-75
2021/01/25 08:59:39;;;;;;;5.85;1.20;;;17.00;44.10;;;;;;6149252;23;20147;-77
2021/01/25 09:02:11;;;;;;;10.95;1.80;;;17.00;43.90;;;;;;6147647;23;20198;-78
2021/01/25 09:04:49;;;;;;;14.00;2.30;;;17.00;43.90;;;;;;6168946;23;20206;-80
2021/01/25 09:07:16;;;;;;;16.55;2.42;;;17.00;44.90;;;;;;6167720;23;20597;-79
2021/01/25 09:09:43;;;;;;;8.35;1.52;;;17.00;44.20;;;;;;6195673;23;20133;-79
2021/01/25 09:12:10;;;;;;;7.38;1.85;;;17.00;44.10;;;;;;6170125;23;20584;-78
2021/01/25 09:14:36;;;;;;;14.57;2.03;;;17.10;44.30;;;;;;6145197;23;20178;-78
2021/01/25 09:17:04;;;;;;;5.60;1.52;;;17.10;44.60;;;;;;6169145;23;20490;-79
2021/01/25 09:19:33;;;;;;;16.15;1.90;;;16.90;44.80;;;;;;6170439;23;20234;-77
2021/01/25 09:22:00;;;;;;;6.60;1.30;;;16.90;44.70;;;;;;6172365;23;20142;-78
2021/01/25 09:24:26;;;;;;;9.80;1.40;;;17.00;44.50;;;;;;6172036;23;20227;-78
2021/01/25 09:26:52;;;;;;;6.15;1.60;;;17.00;44.40;;;;;;6171960;23;20130;-78
2021/01/25 09:29:19;;;;;;;11.52;2.03;;;17.10;44.20;;;;;;6173349;23;20147;-79
2021/01/25 09:31:45;;;;;;;5.30;1.58;;;17.00;44.40;;;;;;6171997;23;20452;-80
2021/01/25 09:34:11;;;;;;;8.02;1.58;;;16.90;44.50;;;;;;6171929;23;20232;-79
2021/01/25 09:36:40;;;;;;;6.35;1.50;;;16.90;44.80;;;;;;6172001;23;20170;-79
2021/01/25 09:39:07;;;;;;;6.72;1.27;;;16.90;45.00;;;;;;6171705;23;20178;-78
2021/01/25 09:41:35;;;;;;;7.15;1.40;;;16.90;44.70;;;;;;6171838;23;20155;-78
2021/01/25 09:44:04;;;;;;;4.25;1.42;;;17.00;44.70;;;;;;6149283;23;20249;-78
2021/01/25 09:46:34;;;;;;;7.43;1.30;;;17.00;44.70;;;;;;6172994;23;20127;-79
2021/01/25 09:49:08;;;;;;;7.75;1.63;;;17.00;44.50;;;;;;6197621;23;20174;-77
2021/01/25 09:51:47;;;;;;;5.20;1.15;;;17.00;44.50;;;;;;6173520;23;20151;-77
2021/01/25 09:54:14;;;;;;;12.70;1.55;;;17.00;44.60;;;;;;6196230;23;20250;-78
2021/01/25 09:56:51;;;;;;;5.75;1.60;;;17.00;44.60;;;;;;6169941;23;20139;-79
2021/01/25 09:59:17;;;;;;;7.53;1.52;;;17.10;44.70;;;;;;6196055;23;20153;-81
2021/01/25 10:01:43;;;;;;;5.05;1.15;;;17.10;44.60;;;;;;6198531;23;20131;-78
2021/01/25 10:04:10;;;;;;;9.13;1.50;;;17.10;44.60;;;;;;6145620;23;20597;-78
2021/01/25 10:06:39;;;;;;;6.30;1.42;;;17.10;44.60;;;;;;6146536;23;20150;-78
2021/01/25 10:09:07;;;;;;;4.82;1.60;;;17.00;44.80;;;;;;6195070;23;20206;-79
2021/01/25 10:11:42;;;;;;;5.95;1.50;;;17.00;45.60;;;;;;6198876;23;20135;-78
2021/01/25 10:14:10;;;;;;;6.93;1.20;;;17.00;44.90;;;;;;6171894;23;20173;-78
2021/01/25 10:16:36;;;;;;;5.28;1.70;;;17.00;45.00;;;;;;6148565;23;20139;-78
2021/01/25 10:19:02;;;;;;;3.97;1.13;;;17.00;45.10;;;;;;6148033;23;20143;-78
2021/01/25 10:21:32;;;;;;;3.92;1.20;;;17.00;45.10;;;;;;6198378;23;20132;-78
2021/01/25 10:24:02;;;;;;;4.80;1.30;;;17.00;45.10;;;;;;6174535;23;20146;-79
2021/01/25 10:26:34;;;;;;;13.90;1.90;;;17.00;45.10;;;;;;6199251;23;20138;-79
2021/01/25 10:29:01;;;;;;;9.75;2.22;;;16.90;45.20;;;;;;6174303;23;20135;-79
2021/01/25 10:31:28;;;;;;;12.55;2.05;;;17.00;45.10;;;;;;6175340;23;20135;-77
2021/01/25 10:33:54;;;;;;;13.95;1.98;;;16.90;45.20;;;;;;6176975;23;20196;-78
2021/01/25 10:36:22;;;;;;;15.73;2.28;;;16.90;45.50;;;;;;6180377;23;20139;-77
2021/01/25 10:38:56;;;;;;;14.98;2.10;;;16.90;45.50;;;;;;6179528;23;20240;-79
2021/01/25 10:41:24;;;;;;;13.15;2.00;;;16.80;45.60;;;;;;6179566;23;20153;-79
2021/01/25 10:43:50;;;;;;;10.48;1.80;;;16.90;45.60;;;;;;6203744;23;20137;-78
2021/01/25 10:46:19;;;;;;;13.68;2.03;;;17.00;45.30;;;;;;6231047;23;20130;-77
2021/01/25 10:48:47;;;;;;;9.13;1.90;;;17.00;45.40;;;;;;6204068;23;20137;-78
2021/01/25 10:51:23;;;;;;;8.88;1.40;;;17.00;45.30;;;;;;6205357;23;20217;-78
2021/01/25 10:53:49;;;;;;;8.50;1.60;;;17.00;45.20;;;;;;6156907;23;20204;-77
2021/01/25 10:56:16;;;;;;;9.70;1.42;;;17.00;45.40;;;;;;6205657;23;20242;-77
2021/01/25 10:58:47;;;;;;;9.57;1.40;;;17.00;45.50;;;;;;6178551;23;20190;-78
2021/01/25 11:01:13;;;;;;;9.02;1.52;;;17.10;45.40;;;;;;6156425;23;20146;-78
2021/01/25 11:03:39;;;;;;;6.72;1.40;;;17.00;45.50;;;;;;6155863;23;20261;-78
2021/01/25 11:06:05;;;;;;;5.53;1.30;;;17.00;45.50;;;;;;6180964;23;20193;-78
2021/01/25 11:08:33;;;;;;;8.07;1.45;;;17.00;45.40;;;;;;6180995;23;20202;-78
2021/01/25 11:11:00;;;;;;;9.32;1.30;;;17.10;45.40;;;;;;6156947;23;20142;-78
2021/01/25 11:13:27;;;;;;;3.90;1.33;;;17.00;45.30;;;;;;6205085;23;20240;-78
2021/01/25 11:15:56;;;;;;;4.80;1.30;;;17.10;45.30;;;;;;6205288;23;20130;-78
2021/01/25 11:18:23;;;;;;;5.53;1.30;;;17.10;45.30;;;;;;6205569;23;20139;-77
2021/01/25 11:20:55;;;;;;;8.93;1.80;;;17.10;45.20;;;;;;6156063;23;20143;-78
2021/01/25 11:23:26;;;;;;;3.20;1.30;;;17.10;45.20;;;;;;6205206;23;20130;-79
2021/01/25 11:25:54;;;;;;;5.55;1.20;;;17.10;45.20;;;;;;6178204;23;20146;-77
2021/01/25 11:28:20;;;;;;;3.65;1.30;;;17.10;45.40;;;;;;6155676;23;20152;-78
2021/01/25 11:30:46;;;;;;;2.50;1.40;;;17.10;45.40;;;;;;6179147;23;20146;-79
2021/01/25 11:33:15;;;;;;;6.20;2.00;;;17.10;45.40;;;;;;6199787;23;20166;-78
2021/01/25 11:35:46;;;;;;;8.07;1.33;;;17.10;45.20;;;;;;6229335;23;20185;-78
2021/01/25 11:38:12;;;;;;;2.75;1.38;;;17.10;45.20;;;;;;6205780;23;20145;-78
2021/01/25 11:40:39;;;;;;;4.93;1.27;;;17.10;45.10;;;;;;6204773;23;20513;-78
2021/01/25 11:43:13;;;;;;;2.92;1.02;;;17.20;45.10;;;;;;6203851;23;20158;-78
2021/01/25 11:45:41;;;;;;;2.40;1.02;;;17.20;45.10;;;;;;6203495;23;20145;-78
2021/01/25 11:48:08;;;;;;;3.17;1.13;;;17.20;45.10;;;;;;6178327;23;20142;-78
2021/01/25 11:50:35;;;;;;;3.92;1.38;;;17.20;45.10;;;;;;6203372;23;20192;-78
2021/01/25 11:53:01;;;;;;;2.83;1.10;;;17.20;45.10;;;;;;6179008;23;20201;-78
2021/01/25 11:55:28;;;;;;;4.60;1.45;;;17.20;45.00;;;;;;6203896;23;20130;-78
2021/01/25 11:57:54;;;;;;;5.43;1.55;;;17.20;45.00;;;;;;6230129;23;20127;-78
2021/01/25 12:00:21;;;;;;;4.47;1.52;;;17.10;45.00;;;;;;6154788;23;20188;-77
2021/01/25 12:02:56;;;;;;;5.80;1.00;;;17.10;45.20;;;;;;6203948;23;20138;-78
2021/01/25 12:05:23;;;;;;;5.60;1.27;;;17.10;45.20;;;;;;6203851;23;20154;-79
2021/01/25 12:07:58;;;;;;;2.65;1.20;;;17.10;45.30;;;;;;6203948;23;20166;-77
2021/01/25 12:10:34;;;;;;;4.25;1.17;;;17.10;45.20;;;;;;6179965;23;20142;-78
2021/01/25 12:13:02;;;;;;;3.35;1.13;;;17.10;45.10;;;;;;6203716;23;20170;-78
2021/01/25 12:15:37;;;;;;;1.65;1.10;;;17.10;44.90;;;;;;6230803;23;20137;-78
2021/01/25 12:18:10;;;;;;;5.15;1.02;;;17.20;44.90;;;;;;6229264;23;20126;-78
2021/01/25 12:20:41;;;;;;;2.78;1.13;;;17.10;44.90;;;;;;6230111;23;20130;-78
2021/01/25 12:23:07;;;;;;;3.33;1.27;;;17.10;45.00;;;;;;6230855;23;20143;-77
2021/01/25 12:25:34;;;;;;;4.55;1.10;;;17.10;45.00;;;;;;6204240;23;20141;-78
2021/01/25 12:28:08;;;;;;;3.97;1.20;;;17.10;44.90;;;;;;6203588;23;20205;-78
2021/01/25 12:30:36;;;;;;;2.97;1.33;;;17.20;45.00;;;;;;6229463;23;20140;-78
2021/01/25 12:33:11;;;;;;;2.20;1.00;;;17.10;45.00;;;;;;6231112;23;20180;-78
2021/01/25 12:35:46;;;;;;;6.93;1.13;;;17.20;44.90;;;;;;6230512;23;20212;-79
2021/01/25 12:38:14;;;;;;;1.60;1.10;;;17.20;44.80;;;;;;6204605;23;20130;-78
2021/01/25 12:40:44;;;;;;;2.58;1.48;;;17.20;44.70;;;;;;6204275;23;20135;-78
2021/01/25 12:43:10;;;;;;;4.45;1.30;;;17.20;44.80;;;;;;6230343;23;20520;-78
2021/01/25 12:45:38;;;;;;;2.97;1.52;;;17.10;44.90;;;;;;6203880;23;20146;-78
2021/01/25 12:48:14;;;;;;;2.97;1.20;;;17.10;45.10;;;;;;6179242;23;20138;-78
2021/01/25 12:50:41;;;;;;;1.65;1.10;;;17.10;45.00;;;;;;6180455;23;20138;-78
2021/01/25 12:53:14;;;;;;;1.50;1.17;;;17.20;44.80;;;;;;6203434;23;20192;-78
2021/01/25 12:55:41;;;;;;;2.65;1.20;;;17.20;44.70;;;;;;6180301;23;20142;-78
2021/01/25 12:58:10;;;;;;;2.95;1.38;;;17.10;44.90;;;;;;6155714;23;20139;-78
2021/01/25 13:00:37;;;;;;;2.65;1.13;;;17.10;44.90;;;;;;6179312;23;20225;-79
2021/01/25 13:03:05;;;;;;;1.45;1.00;;;17.10;44.90;;;;;;6179548;23;20192;-79
2021/01/25 13:05:40;;;;;;;1.60;0.90;;;17.10;45.00;;;;;;6179902;23;20166;-79